Pinhook, Indiana
Current Conditions -  °F | °C
As of 9:41 AM on Tuesday 27 Jan 2015 (Local Time) from KBMG Reporting Station
Overcast Overcast  
Wind Chill: 23°   Ceiling: 1100
Heat Index: 29°   Visibility: 7mi
Dew Point: 26°   Wind: 6mph
Humidity: 89%   Direction: 40°NE
Pressure: 30.04"   Gusts: NA
Location:  38.8737°N, 86.4563°W
Report Text: KBMG 271441Z 04005KT 7SM FEW007 OVC011 M02/M03 A3004 RMK AO2 T10171033
Loading
Personal Weather Stations






























Interactive Weather Map New forecast layout! Learn more

10-Day Weather Forecast

Advertisements
Track Severe Weather on mobile